Time;durP1;ratioP1;P1;durP2;ratioP2;P2;SDS_P1;SDS_P2;PMS_P1;PMS_P2;Temp;Humidity;BMP_temperature;BMP_pressure;BME280_temperature;BME280_humidity;BME280_pressure;Samples;Min_cycle;Max_cycle;Signal;HPM_P1;HPM_P2
2021/08/05 00:01:13;;;;;;;3.78;1.98;;;15.50;89.20;;;;;;6252363;23;20031;-80
2021/08/05 00:03:41;;;;;;;2.72;1.48;;;15.50;89.10;;;;;;6257195;22;20012;-79
2021/08/05 00:06:09;;;;;;;3.50;1.92;;;15.60;89.00;;;;;;6259803;22;20016;-79
2021/08/05 00:08:37;;;;;;;5.25;1.70;;;15.60;89.00;;;;;;6260718;22;20075;-79
2021/08/05 00:11:04;;;;;;;3.88;2.08;;;15.60;88.80;;;;;;6260067;22;20070;-79
2021/08/05 00:13:31;;;;;;;3.58;1.85;;;15.60;88.80;;;;;;6260006;23;20020;-78
2021/08/05 00:15:59;;;;;;;4.80;1.88;;;15.60;88.50;;;;;;6260554;22;20016;-80
2021/08/05 00:18:26;;;;;;;4.03;2.28;;;15.70;88.50;;;;;;6260787;23;20008;-80
2021/08/05 00:20:53;;;;;;;4.45;1.92;;;15.60;88.50;;;;;;6259731;22;20046;-79
2021/08/05 00:23:22;;;;;;;4.07;2.38;;;15.70;88.40;;;;;;6260039;22;20012;-79
2021/08/05 00:25:49;;;;;;;6.60;2.30;;;15.70;88.50;;;;;;6259930;22;20024;-79
2021/08/05 00:28:17;;;;;;;4.05;2.17;;;15.70;88.60;;;;;;6257056;23;20080;-79
2021/08/05 00:30:44;;;;;;;5.05;2.40;;;15.80;88.40;;;;;;6257509;23;20028;-79
2021/08/05 00:33:12;;;;;;;3.45;1.77;;;15.90;88.10;;;;;;6256763;23;20023;-79
2021/08/05 00:35:39;;;;;;;4.18;1.90;;;15.90;88.10;;;;;;6256674;23;20020;-79
2021/08/05 00:38:06;;;;;;;5.20;2.35;;;15.90;88.00;;;;;;6258568;23;20012;-79
2021/08/05 00:40:35;;;;;;;4.38;2.10;;;15.90;88.00;;;;;;6257074;23;20020;-79
2021/08/05 00:43:02;;;;;;;6.35;2.35;;;15.90;88.00;;;;;;6258525;23;20051;-79
2021/08/05 00:45:31;;;;;;;5.20;2.03;;;15.80;88.00;;;;;;6259945;23;20016;-80
2021/08/05 00:47:58;;;;;;;6.63;2.22;;;15.90;88.00;;;;;;6256961;23;20263;-80
2021/08/05 00:50:26;;;;;;;4.90;2.38;;;15.90;88.00;;;;;;6256514;23;20028;-79
2021/08/05 00:52:53;;;;;;;3.58;2.00;;;15.90;87.80;;;;;;6252613;23;20024;-79
2021/08/05 00:55:21;;;;;;;5.60;2.55;;;15.90;88.20;;;;;;6257128;23;20023;-79
2021/08/05 00:57:49;;;;;;;5.18;2.65;;;16.00;88.30;;;;;;6256069;22;20185;-79
2021/08/05 01:00:16;;;;;;;6.07;2.92;;;16.00;88.30;;;;;;6251463;22;20031;-79
2021/08/05 01:02:49;;;;;;;7.60;3.20;;;16.10;88.40;;;;;;6254735;23;20357;-79
2021/08/05 01:05:18;;;;;;;7.70;2.90;;;16.00;88.50;;;;;;6253783;22;20024;-79
2021/08/05 01:07:53;;;;;;;7.53;3.85;;;16.10;88.20;;;;;;6253562;23;20015;-78
2021/08/05 01:10:25;;;;;;;8.88;3.47;;;16.10;88.50;;;;;;6254640;23;20028;-79
2021/08/05 01:13:01;;;;;;;6.75;3.13;;;16.10;88.70;;;;;;6250733;23;20074;-79
2021/08/05 01:15:35;;;;;;;9.98;3.70;;;16.00;88.70;;;;;;6251132;23;20268;-79
2021/08/05 01:18:06;;;;;;;8.07;3.78;;;16.10;88.50;;;;;;6254337;23;20024;-79
2021/08/05 01:20:33;;;;;;;7.10;3.05;;;16.10;88.60;;;;;;6252081;23;20039;-79
2021/08/05 01:23:13;;;;;;;6.50;3.53;;;16.20;88.50;;;;;;6254156;22;20054;-79
2021/08/05 01:25:45;;;;;;;;;;;16.10;88.30;;;;;;6252938;23;20328;-79
2021/08/05 01:28:14;;;;;;;6.07;2.92;;;16.10;88.40;;;;;;6253266;22;19929;-79
2021/08/05 01:30:43;;;;;;;6.05;3.22;;;16.10;88.40;;;;;;6253591;22;20046;-79
2021/08/05 01:33:12;;;;;;;8.75;2.85;;;16.10;88.30;;;;;;6250461;23;20079;-79
2021/08/05 01:35:41;;;;;;;6.07;2.90;;;16.20;88.00;;;;;;6252452;23;20189;-79
2021/08/05 01:38:09;;;;;;;5.43;2.67;;;16.20;88.00;;;;;;6252015;23;20035;-79
2021/08/05 01:40:37;;;;;;;6.57;3.20;;;16.00;88.20;;;;;;6250908;23;20028;-79
2021/08/05 01:43:05;;;;;;;5.68;2.95;;;16.10;88.30;;;;;;6254671;23;20076;-79
2021/08/05 01:45:34;;;;;;;7.85;2.78;;;16.00;87.50;;;;;;6255081;23;20028;-80
2021/08/05 01:48:02;;;;;;;4.78;2.67;;;15.90;87.60;;;;;;6254435;23;20067;-79
2021/08/05 01:50:30;;;;;;;5.82;2.53;;;15.90;87.80;;;;;;6280600;22;20027;-79
2021/08/05 01:53:00;;;;;;;5.10;2.80;;;16.00;87.90;;;;;;6256395;23;20249;-80
2021/08/05 01:55:31;;;;;;;6.70;3.75;;;16.10;88.10;;;;;;6254041;23;20028;-80
2021/08/05 01:57:59;;;;;;;6.50;3.80;;;16.10;87.70;;;;;;6278878;22;20356;-79
2021/08/05 02:00:26;;;;;;;6.93;3.55;;;16.00;88.00;;;;;;6248980;23;20314;-79
2021/08/05 02:02:55;;;;;;;5.03;2.75;;;16.00;88.10;;;;;;6254153;22;20034;-79
2021/08/05 02:05:30;;;;;;;5.90;3.33;;;15.90;88.30;;;;;;6252796;23;20027;-79
2021/08/05 02:08:05;;;;;;;6.93;3.15;;;16.00;88.30;;;;;;6254974;23;20020;-79
2021/08/05 02:10:34;;;;;;;7.68;3.80;;;15.90;88.50;;;;;;6253909;23;20020;-79
2021/08/05 02:13:04;;;;;;;7.70;3.55;;;15.90;88.70;;;;;;6249143;23;20075;-80
2021/08/05 02:15:34;;;;;;;6.80;3.28;;;15.90;88.70;;;;;;6255220;22;20024;-79
2021/08/05 02:18:04;;;;;;;4.43;2.25;;;15.90;88.90;;;;;;6253072;23;20020;-79
2021/08/05 02:20:34;;;;;;;6.30;2.20;;;15.80;87.50;;;;;;6253728;23;20047;-79
2021/08/05 02:23:02;;;;;;;6.30;2.50;;;15.60;87.00;;;;;;6254917;23;20060;-79
2021/08/05 02:25:31;;;;;;;6.32;2.50;;;15.60;87.00;;;;;;6256553;23;20028;-79
2021/08/05 02:27:59;;;;;;;4.95;2.33;;;15.50;87.10;;;;;;6255485;22;20024;-79
2021/08/05 02:30:27;;;;;;;6.85;2.72;;;15.40;87.60;;;;;;6256636;23;20213;-79
2021/08/05 02:32:55;;;;;;;7.00;3.38;;;15.40;87.90;;;;;;6255465;23;20012;-79
2021/08/05 02:35:24;;;;;;;5.38;2.55;;;15.30;88.10;;;;;;6256479;22;20016;-79
2021/08/05 02:37:51;;;;;;;5.85;2.80;;;15.30;88.20;;;;;;6253728;23;20349;-78
2021/08/05 02:40:19;;;;;;;5.55;2.40;;;15.40;88.10;;;;;;6253061;23;20031;-79
2021/08/05 02:42:48;;;;;;;4.47;2.25;;;15.40;87.90;;;;;;6254145;22;20078;-79
2021/08/05 02:45:16;;;;;;;4.80;2.42;;;15.50;87.40;;;;;;6253564;23;20110;-79
2021/08/05 02:47:44;;;;;;;6.20;2.30;;;15.40;87.40;;;;;;6252833;22;20016;-79
2021/08/05 02:50:13;;;;;;;6.72;2.35;;;15.50;87.30;;;;;;6252197;23;20075;-78
2021/08/05 02:52:43;;;;;;;4.82;2.45;;;15.50;87.20;;;;;;6251484;23;20232;-78
2021/08/05 02:55:11;;;;;;;5.30;2.10;;;15.60;87.10;;;;;;6254114;22;20015;-78
2021/08/05 02:57:38;;;;;;;4.03;2.10;;;15.70;86.70;;;;;;6252689;22;20024;-79
2021/08/05 03:00:07;;;;;;;4.15;2.45;;;15.60;86.50;;;;;;6249380;22;20034;-78
2021/08/05 03:02:35;;;;;;;3.53;2.00;;;15.50;86.70;;;;;;6250746;23;20447;-79
2021/08/05 03:05:03;;;;;;;6.05;2.65;;;15.50;86.80;;;;;;6252544;22;20048;-79
2021/08/05 03:07:37;;;;;;;4.55;2.53;;;15.50;86.80;;;;;;6251160;23;20255;-79
2021/08/05 03:10:09;;;;;;;4.95;3.00;;;15.40;87.40;;;;;;6255190;23;20035;-79
2021/08/05 03:12:37;;;;;;;7.03;3.08;;;15.40;87.50;;;;;;6255707;23;20205;-79
2021/08/05 03:15:06;;;;;;;6.85;2.78;;;15.40;87.90;;;;;;6256085;22;20070;-79
2021/08/05 03:17:33;;;;;;;5.07;2.75;;;15.40;87.70;;;;;;6256624;22;20016;-79
2021/08/05 03:20:01;;;;;;;4.82;2.47;;;15.30;88.30;;;;;;6257159;22;20027;-79
2021/08/05 03:22:30;;;;;;;5.90;2.75;;;15.40;88.30;;;;;;6256933;23;20173;-79
2021/08/05 03:24:58;;;;;;;3.53;2.10;;;15.40;87.90;;;;;;6257495;23;20024;-79
2021/08/05 03:27:26;;;;;;;6.22;2.58;;;15.30;87.60;;;;;;6257657;22;20047;-78
2021/08/05 03:29:53;;;;;;;4.90;1.95;;;15.30;87.50;;;;;;6256852;22;20016;-79
2021/08/05 03:32:21;;;;;;;6.47;2.08;;;15.20;87.30;;;;;;6253672;23;20008;-79
2021/08/05 03:34:48;;;;;;;3.53;1.83;;;15.10;87.40;;;;;;6255320;22;20315;-79
2021/08/05 03:37:15;;;;;;;6.60;2.20;;;15.20;87.30;;;;;;6255937;22;20016;-79
2021/08/05 03:39:42;;;;;;;4.05;2.28;;;15.20;87.50;;;;;;6252396;23;20103;-78
2021/08/05 03:42:10;;;;;;;4.60;2.20;;;15.10;87.50;;;;;;6254985;23;20039;-79
2021/08/05 03:44:38;;;;;;;5.30;2.17;;;15.10;87.50;;;;;;6257076;22;20047;-79
2021/08/05 03:47:06;;;;;;;4.47;2.30;;;15.10;87.50;;;;;;6256914;22;20016;-79
2021/08/05 03:49:33;;;;;;;5.82;2.47;;;15.20;87.60;;;;;;6255675;22;20235;-79
2021/08/05 03:52:01;;;;;;;4.75;2.28;;;15.20;87.50;;;;;;6250772;23;20042;-78
2021/08/05 03:54:30;;;;;;;4.15;2.28;;;15.20;87.30;;;;;;6254245;22;20016;-78
2021/08/05 03:56:57;;;;;;;4.07;2.25;;;15.20;87.50;;;;;;6255653;23;20224;-79
2021/08/05 03:59:25;;;;;;;6.45;3.00;;;15.10;87.50;;;;;;6250762;23;20058;-79
2021/08/05 04:01:53;;;;;;;6.38;2.60;;;15.10;87.60;;;;;;6248384;23;20040;-79
2021/08/05 04:04:20;;;;;;;5.40;2.75;;;15.10;88.10;;;;;;6252575;22;20016;-79
2021/08/05 04:06:48;;;;;;;4.95;2.30;;;15.30;87.60;;;;;;6253912;22;20024;-79
2021/08/05 04:09:15;;;;;;;4.70;2.50;;;15.30;87.30;;;;;;6252439;22;20024;-79
2021/08/05 04:11:42;;;;;;;9.15;2.70;;;15.30;87.10;;;;;;6249361;23;20020;-79
2021/08/05 04:14:09;;;;;;;4.97;2.30;;;15.40;87.30;;;;;;6251866;23;20019;-79
2021/08/05 04:16:36;;;;;;;4.50;2.30;;;15.50;87.00;;;;;;6252708;23;20024;-79
2021/08/05 04:19:05;;;;;;;3.60;2.25;;;15.30;86.80;;;;;;6252288;23;20028;-79
2021/08/05 04:21:32;;;;;;;4.10;2.35;;;15.20;86.70;;;;;;6254278;23;20259;-80
2021/08/05 04:23:59;;;;;;;4.93;3.05;;;15.20;87.10;;;;;;6252113;23;20063;-79
2021/08/05 04:26:26;;;;;;;5.85;3.15;;;15.10;87.60;;;;;;6249676;22;20034;-79
2021/08/05 04:28:53;;;;;;;5.47;2.83;;;15.10;87.90;;;;;;6251326;23;20019;-79
2021/08/05 04:31:20;;;;;;;6.82;3.13;;;15.10;88.20;;;;;;6250911;22;20046;-79
2021/08/05 04:33:47;;;;;;;7.13;3.15;;;15.10;88.20;;;;;;6248755;23;20047;-79
2021/08/05 04:36:15;;;;;;;5.93;2.92;;;15.10;88.40;;;;;;6250009;23;20024;-79
2021/08/05 04:38:42;;;;;;;7.15;3.63;;;15.10;88.30;;;;;;6249257;23;20081;-78
2021/08/05 04:41:09;;;;;;;10.55;3.67;;;15.10;88.50;;;;;;6249793;23;20066;-79
2021/08/05 04:43:36;;;;;;;7.68;3.88;;;15.20;88.60;;;;;;6246754;23;20081;-79
2021/08/05 04:46:04;;;;;;;8.23;3.40;;;15.20;88.60;;;;;;6247020;22;20320;-79
2021/08/05 04:48:31;;;;;;;9.85;3.85;;;15.30;88.50;;;;;;6250757;23;20034;-79
2021/08/05 04:50:58;;;;;;;10.68;3.58;;;15.30;88.50;;;;;;6250734;23;20203;-79
2021/08/05 04:53:28;;;;;;;6.90;3.25;;;15.30;88.70;;;;;;6249453;22;20020;-79
2021/08/05 04:55:56;;;;;;;6.93;3.50;;;15.30;88.90;;;;;;6248896;23;20020;-79
2021/08/05 04:58:23;;;;;;;7.82;3.45;;;15.40;88.40;;;;;;6250915;23;20323;-80
2021/08/05 05:00:51;;;;;;;6.75;3.47;;;15.60;88.30;;;;;;6246176;23;20047;-79
2021/08/05 05:03:18;;;;;;;7.40;3.58;;;15.60;88.00;;;;;;6246369;23;20091;-79
2021/08/05 05:05:45;;;;;;;6.80;3.33;;;15.60;88.00;;;;;;6254199;22;20024;-79
2021/08/05 05:08:18;;;;;;;6.35;3.28;;;15.70;88.10;;;;;;6249995;23;20039;-79
2021/08/05 05:10:47;;;;;;;7.15;3.20;;;15.70;87.70;;;;;;6250494;22;20023;-80
2021/08/05 05:13:16;;;;;;;6.70;3.20;;;15.80;87.70;;;;;;6250745;22;20012;-78
2021/08/05 05:15:43;;;;;;;7.43;3.97;;;15.90;87.30;;;;;;6248682;23;20020;-79
2021/08/05 05:18:11;;;;;;;12.45;5.13;;;15.90;87.10;;;;;;6254294;23;20016;-80
2021/08/05 05:20:39;;;;;;;7.88;3.85;;;15.80;87.10;;;;;;6252339;23;20051;-79
2021/08/05 05:23:08;;;;;;;9.25;4.38;;;15.80;87.60;;;;;;6251306;22;20028;-79
2021/08/05 05:25:36;;;;;;;7.07;3.97;;;15.80;87.50;;;;;;6250298;23;20039;-79
2021/08/05 05:28:06;;;;;;;8.20;4.63;;;15.70;87.20;;;;;;6253703;22;20016;-79
2021/08/05 05:30:33;;;;;;;8.95;3.90;;;15.80;87.30;;;;;;6249708;22;20070;-79
2021/08/05 05:33:00;;;;;;;6.90;3.90;;;15.80;87.40;;;;;;6251031;23;20047;-79
2021/08/05 05:35:29;;;;;;;6.95;3.83;;;15.90;87.40;;;;;;6250305;22;20390;-79
2021/08/05 05:37:58;;;;;;;6.50;3.38;;;15.90;87.00;;;;;;6250158;22;20028;-80
2021/08/05 05:40:26;;;;;;;8.90;3.85;;;15.90;86.70;;;;;;6249339;23;20055;-79
2021/08/05 05:42:54;;;;;;;8.13;4.22;;;16.00;86.70;;;;;;6252323;22;20047;-79
2021/08/05 05:45:23;;;;;;;7.40;3.38;;;16.00;86.60;;;;;;6250731;22;20020;-79
2021/08/05 05:47:51;;;;;;;8.10;3.70;;;15.90;86.90;;;;;;6252642;22;20016;-79
2021/08/05 05:50:20;;;;;;;6.80;3.25;;;16.10;86.80;;;;;;6251085;22;20024;-80
2021/08/05 05:52:48;;;;;;;6.28;3.10;;;16.20;86.40;;;;;;6249106;23;20559;-79
2021/08/05 05:55:16;;;;;;;8.00;4.07;;;16.20;86.10;;;;;;6276303;22;20024;-79
2021/08/05 05:57:43;;;;;;;9.88;3.67;;;16.30;85.80;;;;;;6250260;23;20071;-79
2021/08/05 06:00:11;;;;;;;6.70;3.70;;;16.30;85.70;;;;;;6252136;23;20024;-80
2021/08/05 06:02:40;;;;;;;6.93;3.60;;;16.40;85.40;;;;;;6254537;22;20328;-77
2021/08/05 06:05:09;;;;;;;6.10;3.65;;;16.40;85.40;;;;;;6250211;23;20020;-79
2021/08/05 06:07:43;;;;;;;6.45;3.60;;;16.40;85.10;;;;;;6249849;23;20028;-79
2021/08/05 06:10:12;;;;;;;6.45;3.33;;;16.60;85.10;;;;;;6251296;22;20024;-79
2021/08/05 06:12:39;;;;;;;7.57;3.78;;;17.00;84.10;;;;;;6251578;22;20039;-77
2021/08/05 06:15:08;;;;;;;8.05;4.10;;;17.20;82.80;;;;;;6251599;22;20012;-77
2021/08/05 06:17:35;;;;;;;6.53;3.60;;;17.40;82.50;;;;;;6251804;23;20031;-79
2021/08/05 06:20:05;;;;;;;7.15;3.92;;;17.60;81.40;;;;;;6250535;23;20027;-78
2021/08/05 06:22:32;;;;;;;8.48;3.70;;;17.50;82.00;;;;;;6252700;23;20038;-79
2021/08/05 06:24:59;;;;;;;8.57;4.57;;;17.70;81.50;;;;;;6250572;23;20084;-79
2021/08/05 06:27:27;;;;;;;7.05;3.88;;;18.00;80.20;;;;;;6252078;22;20095;-79
2021/08/05 06:29:54;;;;;;;7.75;3.80;;;18.20;79.70;;;;;;6255221;22;20058;-79
2021/08/05 06:32:21;;;;;;;5.97;3.63;;;18.20;79.40;;;;;;6252853;23;20016;-78
2021/08/05 06:34:48;;;;;;;7.28;3.95;;;18.10;79.70;;;;;;6251013;23;20027;-79
2021/08/05 06:37:17;;;;;;;7.88;3.88;;;18.10;79.70;;;;;;6252456;22;20031;-79
2021/08/05 06:39:45;;;;;;;7.80;4.70;;;18.10;79.30;;;;;;6251036;23;20016;-79
2021/08/05 06:42:12;;;;;;;6.35;3.42;;;18.10;79.90;;;;;;6252565;22;20036;-79
2021/08/05 06:44:39;;;;;;;7.68;3.72;;;18.10;79.30;;;;;;6252795;23;20277;-79
2021/08/05 06:47:07;;;;;;;7.07;3.92;;;18.10;79.80;;;;;;6255026;22;20079;-80
2021/08/05 06:49:35;;;;;;;8.10;3.53;;;18.20;79.30;;;;;;6255903;22;20031;-79
2021/08/05 06:52:03;;;;;;;7.07;3.65;;;18.20;79.20;;;;;;6252703;23;20066;-79
2021/08/05 06:54:31;;;;;;;7.65;4.07;;;18.20;79.30;;;;;;6254114;22;20020;-79
2021/08/05 06:56:58;;;;;;;6.63;3.90;;;18.30;79.10;;;;;;6252211;23;20034;-79
2021/08/05 06:59:26;;;;;;;8.15;4.32;;;18.20;79.30;;;;;;6253699;23;20024;-79
2021/08/05 07:01:53;;;;;;;6.90;3.42;;;18.20;79.70;;;;;;6248749;23;20020;-79
2021/08/05 07:04:20;;;;;;;6.82;4.03;;;18.40;79.30;;;;;;6253005;22;20038;-80
2021/08/05 07:06:47;;;;;;;5.22;3.03;;;18.60;78.70;;;;;;6257770;22;20058;-79
2021/08/05 07:09:15;;;;;;;5.95;3.00;;;18.60;79.00;;;;;;6257847;22;20016;-79
2021/08/05 07:11:43;;;;;;;6.63;3.50;;;18.60;78.00;;;;;;6254992;23;20304;-79
2021/08/05 07:14:11;;;;;;;8.68;3.70;;;18.50;78.30;;;;;;6258913;22;20099;-79
2021/08/05 07:16:38;;;;;;;7.05;4.10;;;18.40;78.70;;;;;;6259069;23;20020;-79
2021/08/05 07:19:05;;;;;;;9.05;4.45;;;18.50;78.20;;;;;;6258402;23;20037;-79
2021/08/05 07:21:33;;;;;;;6.20;3.63;;;18.50;77.90;;;;;;6257080;23;20359;-79
2021/08/05 07:24:00;;;;;;;9.15;4.15;;;18.60;78.30;;;;;;6258451;22;20074;-79
2021/08/05 07:26:29;;;;;;;5.90;3.65;;;18.60;78.20;;;;;;6258867;22;20354;-79
2021/08/05 07:28:58;;;;;;;8.95;4.15;;;18.70;77.50;;;;;;6258945;22;20024;-79
2021/08/05 07:31:25;;;;;;;8.20;4.13;;;18.60;77.70;;;;;;6259381;22;20028;-79
2021/08/05 07:33:54;;;;;;;8.75;4.35;;;18.60;78.30;;;;;;6257522;22;20024;-79
2021/08/05 07:36:22;;;;;;;9.73;4.20;;;18.70;78.10;;;;;;6256811;23;20016;-79
2021/08/05 07:38:50;;;;;;;6.75;3.97;;;18.60;78.40;;;;;;6258322;23;20028;-78
2021/08/05 07:41:17;;;;;;;6.55;3.72;;;18.60;78.50;;;;;;6258364;22;20016;-79
2021/08/05 07:43:45;;;;;;;7.30;3.90;;;18.50;78.70;;;;;;6259064;23;20024;-79
2021/08/05 07:46:14;;;;;;;6.72;3.90;;;18.60;78.40;;;;;;6257642;23;20300;-79
2021/08/05 07:48:42;;;;;;;11.52;4.70;;;18.60;78.40;;;;;;6259766;23;20072;-79
2021/08/05 07:51:09;;;;;;;8.07;4.03;;;18.50;78.50;;;;;;6253598;23;20031;-79
2021/08/05 07:53:38;;;;;;;7.53;4.57;;;18.60;78.40;;;;;;6250044;23;20038;-79
2021/08/05 07:56:05;;;;;;;8.52;4.28;;;18.70;77.90;;;;;;6254757;23;20036;-80
2021/08/05 07:58:32;;;;;;;8.65;4.30;;;18.90;77.70;;;;;;6252251;23;20036;-80
2021/08/05 08:01:00;;;;;;;7.93;4.50;;;19.10;77.00;;;;;;6247539;23;20226;-76
2021/08/05 08:03:34;;;;;;;10.00;4.97;;;19.00;76.90;;;;;;6241492;23;20204;-76
2021/08/05 08:06:02;;;;;;;8.45;4.60;;;18.80;77.40;;;;;;6246666;23;20028;-76
2021/08/05 08:08:29;;;;;;;8.05;4.38;;;19.10;76.60;;;;;;6244864;23;20044;-76
2021/08/05 08:10:56;;;;;;;8.40;5.03;;;19.20;76.60;;;;;;6245646;23;20031;-76
2021/08/05 08:13:24;;;;;;;7.93;4.20;;;19.30;76.80;;;;;;6245306;23;20082;-77
2021/08/05 08:15:53;;;;;;;9.45;4.88;;;19.40;76.10;;;;;;6248263;23;20024;-76
2021/08/05 08:18:20;;;;;;;10.80;4.75;;;19.40;76.20;;;;;;6251810;23;20016;-76
2021/08/05 08:20:49;;;;;;;8.48;4.00;;;19.40;76.20;;;;;;6252627;22;20369;-76
2021/08/05 08:23:17;;;;;;;8.00;4.38;;;19.40;76.20;;;;;;6251468;23;20060;-77
2021/08/05 08:25:44;;;;;;;9.15;4.25;;;19.40;76.40;;;;;;6254009;23;20020;-76
2021/08/05 08:28:12;;;;;;;10.25;4.72;;;19.60;75.60;;;;;;6253651;22;20083;-76
2021/08/05 08:30:39;;;;;;;9.15;4.75;;;19.40;75.80;;;;;;6254524;22;20024;-76
2021/08/05 08:33:06;;;;;;;8.57;4.25;;;19.60;75.30;;;;;;6250813;23;20342;-76
2021/08/05 08:35:34;;;;;;;7.82;4.63;;;19.50;74.70;;;;;;6255160;23;20260;-76
2021/08/05 08:38:03;;;;;;;7.25;3.92;;;19.30;75.40;;;;;;6254917;22;20016;-77
2021/08/05 08:40:30;;;;;;;7.45;4.25;;;19.50;74.70;;;;;;6252363;23;20028;-76
2021/08/05 08:43:00;;;;;;;8.77;4.78;;;19.60;75.10;;;;;;6248578;22;20024;-76
2021/08/05 08:45:28;;;;;;;;;;;19.60;74.90;;;;;;6248848;22;20107;-76
2021/08/05 08:47:56;;;;;;;5.82;3.10;;;19.60;74.10;;;;;;6248172;23;20143;-76
2021/08/05 08:50:25;;;;;;;7.32;4.40;;;19.70;74.40;;;;;;6249848;23;20024;-77
2021/08/05 08:52:56;;;;;;;5.60;3.43;;;19.90;74.00;;;;;;6251161;23;20271;-76
2021/08/05 08:55:25;;;;;;;7.57;3.58;;;19.90;73.60;;;;;;6251998;23;20070;-76
2021/08/05 08:57:54;;;;;;;7.00;3.63;;;20.20;73.00;;;;;;6246568;22;20012;-78
2021/08/05 09:00:22;;;;;;;8.13;3.87;;;20.30;72.60;;;;;;6243827;23;20028;-76
2021/08/05 09:02:49;;;;;;;6.32;3.13;;;20.50;71.90;;;;;;6253722;22;20339;-77
2021/08/05 09:05:17;;;;;;;7.53;3.95;;;20.50;72.30;;;;;;6249167;22;20058;-76
2021/08/05 09:07:45;;;;;;;8.02;3.67;;;20.60;72.00;;;;;;6249791;22;20031;-76
2021/08/05 09:10:12;;;;;;;7.22;4.53;;;20.80;71.60;;;;;;6248756;22;20024;-76
2021/08/05 09:12:42;;;;;;;11.23;3.75;;;20.80;70.50;;;;;;6248779;23;20020;-76
2021/08/05 09:15:12;;;;;;;7.07;3.65;;;21.00;70.50;;;;;;6249503;23;20012;-75
2021/08/05 09:17:41;;;;;;;;;;;20.90;70.50;;;;;;6249491;22;20044;-75
2021/08/05 09:20:12;;;;;;;6.15;3.28;;;21.10;69.10;;;;;;6248162;23;19919;-76
2021/08/05 09:22:42;;;;;;;9.05;4.28;;;21.20;69.20;;;;;;6250372;23;20216;-76
2021/08/05 09:25:29;;;;;;;;;;;21.30;68.70;;;;;;6247234;23;20043;-76
2021/08/05 09:28:00;;;;;;;6.63;2.95;;;21.50;68.70;;;;;;6245801;22;19926;-76
2021/08/05 09:30:34;;;;;;;5.68;3.42;;;21.60;66.10;;;;;;6243664;23;20027;-76
2021/08/05 09:33:07;;;;;;;5.93;3.72;;;21.70;66.30;;;;;;6246728;22;20232;-76
2021/08/05 09:35:35;;;;;;;6.10;3.15;;;21.70;66.30;;;;;;6251557;23;20016;-76
2021/08/05 09:38:24;;;;;;;8.00;3.40;;;21.80;65.40;;;;;;6251076;23;20032;-76
2021/08/05 09:40:53;;;;;;;4.72;3.03;;;22.20;65.10;;;;;;6246992;23;20050;-75
2021/08/05 09:43:27;;;;;;;5.53;3.13;;;22.50;64.50;;;;;;6244822;23;20028;-75
2021/08/05 09:45:54;;;;;;;6.57;3.47;;;22.60;63.40;;;;;;6243273;23;20069;-75
2021/08/05 09:48:39;;;;;;;4.85;2.65;;;23.00;62.80;;;;;;6245532;22;20267;-77
2021/08/05 09:51:13;;;;;;;5.03;2.63;;;23.10;61.50;;;;;;6246689;23;20375;-74
2021/08/05 09:53:57;;;;;;;4.40;2.45;;;23.20;60.10;;;;;;6246715;23;20032;-75
2021/08/05 09:56:25;;;;;;;5.30;2.50;;;23.20;59.50;;;;;;6243698;23;20316;-77
2021/08/05 09:59:05;;;;;;;4.72;2.78;;;23.00;58.80;;;;;;6245720;22;20105;-76
2021/08/05 10:01:32;;;;;;;5.93;2.40;;;23.10;59.00;;;;;;6245064;23;20183;-77
2021/08/05 10:03:59;;;;;;;4.22;2.45;;;23.00;58.30;;;;;;6253620;22;20020;-77
2021/08/05 10:06:28;;;;;;;4.13;2.25;;;23.10;58.70;;;;;;6250181;23;20216;-77
2021/08/05 10:08:55;;;;;;;4.07;1.98;;;23.40;59.80;;;;;;6245386;23;20028;-76
2021/08/05 10:11:37;;;;;;;4.03;2.33;;;24.50;57.60;;;;;;6250905;23;20016;-77
2021/08/05 10:14:21;;;;;;;4.60;2.50;;;25.40;54.30;;;;;;6249440;22;20038;-77
2021/08/05 10:16:50;;;;;;;4.07;2.22;;;26.10;51.60;;;;;;6250417;22;20324;-76
2021/08/05 10:19:19;;;;;;;4.78;2.30;;;26.20;49.50;;;;;;6247563;23;20023;-77
2021/08/05 10:21:48;;;;;;;4.05;2.00;;;27.00;49.40;;;;;;6253360;22;20016;-76
2021/08/05 10:24:17;;;;;;;2.22;1.27;;;27.40;45.70;;;;;;6253228;23;20039;-76
2021/08/05 10:26:45;;;;;;;3.95;2.15;;;28.70;41.90;;;;;;6250253;22;20031;-76
2021/08/05 10:29:16;;;;;;;3.80;2.07;;;29.20;41.30;;;;;;6253386;22;20247;-76
2021/08/05 10:31:45;;;;;;;6.13;2.47;;;28.90;41.60;;;;;;6253669;22;20316;-76
2021/08/05 10:34:13;;;;;;;3.42;2.10;;;29.20;40.90;;;;;;6253599;22;20346;-76
2021/08/05 10:36:42;;;;;;;4.20;2.30;;;28.40;42.90;;;;;;6252395;23;20020;-76
2021/08/05 10:39:10;;;;;;;3.40;1.95;;;28.10;44.30;;;;;;6254325;22;20028;-76
2021/08/05 10:41:37;;;;;;;2.70;1.52;;;28.60;43.00;;;;;;6250493;23;20047;-76
2021/08/05 10:44:05;;;;;;;3.63;1.90;;;28.70;41.70;;;;;;6255458;22;20111;-76
2021/08/05 10:46:34;;;;;;;3.70;1.73;;;27.30;43.80;;;;;;6255591;22;20204;-75
2021/08/05 10:49:03;;;;;;;2.25;1.17;;;28.50;41.70;;;;;;6256213;23;20024;-76
2021/08/05 10:51:35;;;;;;;3.53;1.63;;;29.90;37.20;;;;;;6253215;23;20304;-75
2021/08/05 10:54:04;;;;;;;3.60;2.03;;;31.00;36.40;;;;;;6250866;23;20020;-75
2021/08/05 10:56:33;;;;;;;3.72;2.22;;;31.30;36.20;;;;;;6245887;23;20054;-75
2021/08/05 10:59:05;;;;;;;5.38;1.90;;;31.70;35.10;;;;;;6251456;23;20028;-75
2021/08/05 11:01:49;;;;;;;4.55;1.60;;;31.60;35.40;;;;;;6249986;22;20016;-76
2021/08/05 11:04:46;;;;;;;4.38;1.70;;;32.50;33.50;;;;;;6247065;22;20263;-75
2021/08/05 11:07:30;;;;;;;3.75;1.83;;;32.90;32.00;;;;;;6249554;23;20035;-76
2021/08/05 11:10:22;;;;;;;2.88;1.70;;;34.40;30.90;;;;;;6251634;22;20015;-75
2021/08/05 11:12:53;;;;;;;2.80;1.60;;;34.40;29.60;;;;;;6253182;22;20295;-76
2021/08/05 11:15:46;;;;;;;4.22;2.20;;;32.80;31.00;;;;;;6276213;22;20016;-75
2021/08/05 11:18:19;;;;;;;4.00;1.67;;;28.80;38.00;;;;;;6253109;23;20075;-75
2021/08/05 11:21:07;;;;;;;3.88;2.10;;;28.10;40.20;;;;;;6252229;23;20027;-77
2021/08/05 11:23:42;;;;;;;4.53;1.98;;;27.80;41.00;;;;;;6252058;23;20044;-76
2021/08/05 11:26:11;;;;;;;3.75;2.25;;;27.90;41.30;;;;;;6251711;22;20259;-76
2021/08/05 11:28:49;;;;;;;4.53;2.10;;;30.30;36.70;;;;;;6252171;22;20367;-75
2021/08/05 11:31:42;;;;;;;3.03;1.63;;;31.50;34.80;;;;;;6250204;23;20032;-75
2021/08/05 11:34:12;;;;;;;4.18;1.65;;;33.70;29.90;;;;;;6265983;22;20075;-76
2021/08/05 11:36:48;;;;;;;2.65;1.48;;;34.40;29.10;;;;;;6247609;23;20024;-75
2021/08/05 11:39:24;;;;;;;2.28;1.40;;;34.80;29.00;;;;;;6249385;23;20058;-75
2021/08/05 11:41:56;;;;;;;3.17;1.50;;;34.50;28.40;;;;;;6247488;23;20366;-75
2021/08/05 11:44:30;;;;;;;3.28;1.60;;;31.30;32.10;;;;;;6247993;23;20050;-75
2021/08/05 11:47:27;;;;;;;2.22;1.50;;;28.40;37.20;;;;;;6250631;23;20335;-74
2021/08/05 11:49:58;;;;;;;2.85;1.70;;;28.30;37.70;;;;;;6249996;23;20016;-74
2021/08/05 11:52:34;;;;;;;3.00;1.55;;;29.90;34.60;;;;;;6253539;23;20044;-75
2021/08/05 11:55:06;;;;;;;2.35;1.50;;;28.10;38.20;;;;;;6251647;23;20028;-75
2021/08/05 11:57:41;;;;;;;2.38;1.35;;;29.30;36.20;;;;;;6254990;23;20058;-75
2021/08/05 12:00:14;;;;;;;3.72;1.58;;;28.60;36.40;;;;;;6248995;22;20024;-75
2021/08/05 12:02:43;;;;;;;5.25;1.98;;;27.80;38.80;;;;;;6278396;22;20034;-76
2021/08/05 12:05:11;;;;;;;3.63;1.60;;;27.40;40.40;;;;;;6254485;22;20078;-75
2021/08/05 12:07:39;;;;;;;3.72;1.73;;;29.90;37.80;;;;;;6254450;22;20039;-75
2021/08/05 12:10:13;;;;;;;3.40;1.70;;;32.30;33.30;;;;;;6253108;23;20305;-75
2021/08/05 12:12:44;;;;;;;7.05;1.80;;;33.60;30.70;;;;;;6254084;22;20015;-76
2021/08/05 12:15:13;;;;;;;2.63;1.50;;;34.30;28.70;;;;;;6252558;23;20028;-76
2021/08/05 12:17:47;;;;;;;2.70;1.73;;;33.30;30.40;;;;;;6254910;22;20178;-76
2021/08/05 12:20:17;;;;;;;2.58;1.38;;;34.50;29.00;;;;;;6253989;22;20272;-75
2021/08/05 12:22:46;;;;;;;2.53;1.55;;;35.60;27.30;;;;;;6252572;23;20220;-75
2021/08/05 12:25:30;;;;;;;3.97;1.48;;;36.80;25.80;;;;;;6254578;23;20036;-75
2021/08/05 12:28:04;;;;;;;3.88;1.50;;;36.00;26.70;;;;;;6252238;22;20066;-75
2021/08/05 12:30:43;;;;;;;3.85;2.05;;;37.90;25.50;;;;;;6253050;23;20020;-75
2021/08/05 12:33:13;;;;;;;2.45;1.30;;;38.70;24.10;;;;;;6255891;22;20020;-76
2021/08/05 12:35:41;;;;;;;4.22;1.52;;;39.60;23.40;;;;;;6256000;23;20012;-75
2021/08/05 12:38:10;;;;;;;;;;;39.90;23.10;;;;;;6255324;23;20024;-75
2021/08/05 12:40:42;;;;;;;3.40;1.30;;;40.50;22.40;;;;;;6254988;22;19912;-76
2021/08/05 12:43:11;;;;;;;2.50;1.42;;;39.30;22.60;;;;;;6255353;23;20304;-75
2021/08/05 12:45:41;;;;;;;2.38;1.40;;;38.00;23.30;;;;;;6252737;22;20016;-76
2021/08/05 12:48:10;;;;;;;2.22;1.20;;;38.40;22.80;;;;;;6253336;23;20364;-76
2021/08/05 12:50:40;;;;;;;1.58;1.13;;;38.40;22.70;;;;;;6252739;23;20020;-75
2021/08/05 12:53:08;;;;;;;2.40;1.10;;;37.20;24.60;;;;;;6252565;22;20326;-76
2021/08/05 12:55:51;;;;;;;3.33;1.20;;;37.70;24.40;;;;;;6253708;23;20312;-76
2021/08/05 12:58:20;;;;;;;2.00;1.30;;;38.10;23.70;;;;;;6250429;23;20050;-76
2021/08/05 13:00:48;;;;;;;2.17;1.10;;;37.00;24.90;;;;;;6246933;22;20065;-76